Time;durP1;ratioP1;P1;durP2;ratioP2;P2;SDS_P1;SDS_P2;PMS_P1;PMS_P2;Temp;Humidity;BMP_temperature;BMP_pressure;BME280_temperature;BME280_humidity;BME280_pressure;Samples;Min_cycle;Max_cycle;Signal;HPM_P1;HPM_P2
2022/03/26 00:02:14;;;;;;;19.90;13.80;;;11.70;47.00;;;;;;5070601;28;20462;-44
2022/03/26 00:04:40;;;;;;;22.23;13.67;;;11.70;47.10;;;;;;5065839;28;20466;-44
2022/03/26 00:07:07;;;;;;;22.23;14.30;;;11.60;47.20;;;;;;5068599;28;20483;-44
2022/03/26 00:09:34;;;;;;;24.67;13.10;;;11.60;47.10;;;;;;5065552;28;20463;-44
2022/03/26 00:12:01;;;;;;;24.30;13.37;;;11.60;47.10;;;;;;5066267;28;20447;-44
2022/03/26 00:14:28;;;;;;;23.37;13.83;;;11.50;47.20;;;;;;5046990;28;20479;-44
2022/03/26 00:16:55;;;;;;;26.60;13.10;;;11.50;47.30;;;;;;5067157;28;20485;-44
2022/03/26 00:19:22;;;;;;;19.17;13.97;;;11.50;47.30;;;;;;5065181;28;20504;-44
2022/03/26 00:21:48;;;;;;;21.63;12.83;;;11.40;47.50;;;;;;5064240;28;20459;-44
2022/03/26 00:24:15;;;;;;;25.67;13.70;;;11.40;47.70;;;;;;5066319;28;21013;-44
2022/03/26 00:26:42;;;;;;;27.40;15.50;;;11.40;48.00;;;;;;5068891;28;20502;-44
2022/03/26 00:29:09;;;;;;;18.47;12.87;;;11.30;48.20;;;;;;5062852;28;20478;-44
2022/03/26 00:31:37;;;;;;;18.27;13.33;;;11.30;48.00;;;;;;5067010;28;20810;-44
2022/03/26 00:34:09;;;;;;;23.80;13.27;;;11.20;48.40;;;;;;5049007;28;20471;-44
2022/03/26 00:36:35;;;;;;;24.20;15.40;;;11.20;48.60;;;;;;5056011;28;20464;-44
2022/03/26 00:39:03;;;;;;;26.30;16.53;;;11.20;49.10;;;;;;5063457;28;20464;-44
2022/03/26 00:41:30;;;;;;;23.03;15.37;;;11.10;49.20;;;;;;5066242;28;20603;-44
2022/03/26 00:43:57;;;;;;;27.60;16.07;;;11.10;49.20;;;;;;5063321;28;20979;-44
2022/03/26 00:46:24;;;;;;;20.60;14.30;;;11.00;49.60;;;;;;5065156;28;20516;-44
2022/03/26 00:48:51;;;;;;;24.40;15.87;;;10.90;50.00;;;;;;5048341;28;20450;-44
2022/03/26 00:51:18;;;;;;;26.03;15.10;;;10.80;50.70;;;;;;5061492;28;20538;-44
2022/03/26 00:53:46;;;;;;;20.73;13.17;;;10.80;50.80;;;;;;5064755;28;20467;-44
2022/03/26 00:56:13;;;;;;;20.60;14.33;;;10.70;51.00;;;;;;5061236;28;20529;-44
2022/03/26 00:58:40;;;;;;;24.23;14.30;;;10.60;50.90;;;;;;5064525;28;20467;-44
2022/03/26 01:01:07;;;;;;;24.33;13.83;;;10.50;50.80;;;;;;5065471;28;20466;-44
2022/03/26 01:03:34;;;;;;;23.27;13.97;;;10.40;50.80;;;;;;5052485;28;20475;-44
2022/03/26 01:06:03;;;;;;;24.10;14.13;;;10.40;50.90;;;;;;5063903;28;20518;-44
2022/03/26 01:08:31;;;;;;;23.50;14.30;;;10.30;51.30;;;;;;5051234;28;20463;-44
2022/03/26 01:10:59;;;;;;;20.70;12.73;;;10.20;51.50;;;;;;5066702;28;20459;-44
2022/03/26 01:13:26;;;;;;;22.83;14.83;;;10.20;51.60;;;;;;5063358;28;20457;-44
2022/03/26 01:15:53;;;;;;;19.73;12.70;;;10.10;51.60;;;;;;5064482;28;20459;-44
2022/03/26 01:18:22;;;;;;;21.10;14.00;;;10.00;51.80;;;;;;5065802;28;20466;-44
2022/03/26 01:20:49;;;;;;;25.60;14.10;;;10.00;51.80;;;;;;5067833;28;21103;-44
2022/03/26 01:23:19;;;;;;;25.23;16.27;;;9.90;52.00;;;;;;5065467;28;20522;-44
2022/03/26 01:25:47;;;;;;;25.97;20.57;;;9.90;52.60;;;;;;5068314;28;20490;-44
2022/03/26 01:28:14;;;;;;;36.13;23.90;;;9.80;52.50;;;;;;5065472;28;20464;-44
2022/03/26 01:30:41;;;;;;;33.37;19.70;;;9.70;52.90;;;;;;5063137;28;20538;-44
2022/03/26 01:33:08;;;;;;;26.20;17.40;;;9.70;53.30;;;;;;5066301;28;20878;-45
2022/03/26 01:35:35;;;;;;;24.30;14.40;;;9.60;53.30;;;;;;5061739;28;20459;-44
2022/03/26 01:38:04;;;;;;;22.20;14.23;;;9.60;53.30;;;;;;5061340;28;20467;-44
2022/03/26 01:40:33;;;;;;;23.10;14.53;;;9.50;53.40;;;;;;5064155;28;20466;-44
2022/03/26 01:43:00;;;;;;;24.77;14.47;;;9.50;53.40;;;;;;5053003;28;20497;-44
2022/03/26 01:45:27;;;;;;;21.83;13.43;;;9.40;53.50;;;;;;5063696;28;20450;-44
2022/03/26 01:47:55;;;;;;;21.77;12.80;;;9.40;54.10;;;;;;5063321;28;20557;-44
2022/03/26 01:50:23;;;;;;;26.70;14.97;;;9.30;54.30;;;;;;5063974;28;20836;-44
2022/03/26 01:52:51;;;;;;;21.43;13.23;;;9.30;54.30;;;;;;5064346;28;20944;-44
2022/03/26 01:55:18;;;;;;;20.67;13.40;;;9.20;54.20;;;;;;5064985;28;20465;-44
2022/03/26 01:57:46;;;;;;;24.13;15.10;;;9.20;54.40;;;;;;5064505;28;20548;-44
2022/03/26 02:00:13;;;;;;;22.37;13.50;;;9.10;54.50;;;;;;5066671;28;20464;-44
2022/03/26 02:02:44;;;;;;;20.90;13.90;;;9.00;54.70;;;;;;5049885;28;21037;-44
2022/03/26 02:05:13;;;;;;;26.37;13.30;;;8.90;55.10;;;;;;5063233;28;20484;-44
2022/03/26 02:07:42;;;;;;;18.60;12.57;;;8.90;55.10;;;;;;5060790;28;20490;-44
2022/03/26 02:10:10;;;;;;;19.13;12.60;;;8.80;55.30;;;;;;5060830;28;20552;-44
2022/03/26 02:12:37;;;;;;;21.30;12.60;;;8.90;55.50;;;;;;5047748;28;20838;-44
2022/03/26 02:15:09;;;;;;;26.93;12.97;;;8.80;55.00;;;;;;5057456;28;20550;-44
2022/03/26 02:17:38;;;;;;;20.20;12.10;;;8.80;55.10;;;;;;5033914;28;20557;-44
2022/03/26 02:20:10;;;;;;;24.93;13.43;;;8.80;55.00;;;;;;5061131;28;20466;-44
2022/03/26 02:22:38;;;;;;;18.77;12.43;;;8.70;55.60;;;;;;5063550;28;20462;-44
2022/03/26 02:25:08;;;;;;;23.43;14.13;;;8.70;55.60;;;;;;5063323;28;20462;-44
2022/03/26 02:27:35;;;;;;;21.57;13.43;;;8.60;55.80;;;;;;5044097;28;20490;-44
2022/03/26 02:30:02;;;;;;;23.63;15.00;;;8.60;55.70;;;;;;5064535;28;20786;-44
2022/03/26 02:32:29;;;;;;;22.73;13.67;;;8.50;55.80;;;;;;5050189;28;21110;-44
2022/03/26 02:34:56;;;;;;;28.27;15.17;;;8.50;56.40;;;;;;5053684;28;20546;-44
2022/03/26 02:37:30;;;;;;;28.13;14.50;;;8.50;56.40;;;;;;5063441;28;20472;-44
2022/03/26 02:39:58;;;;;;;26.63;14.33;;;8.60;56.50;;;;;;5061552;28;20560;-44
2022/03/26 02:42:25;;;;;;;21.90;13.40;;;8.50;56.50;;;;;;5062860;28;20474;-44
2022/03/26 02:44:52;;;;;;;21.27;14.10;;;8.50;56.00;;;;;;5067786;28;20464;-44
2022/03/26 02:47:19;;;;;;;23.73;12.90;;;8.50;56.00;;;;;;5062419;28;20565;-44
2022/03/26 02:49:46;;;;;;;22.30;14.13;;;8.40;56.10;;;;;;5061366;28;20454;-44
2022/03/26 02:52:12;;;;;;;19.53;14.00;;;8.40;56.50;;;;;;5061470;28;20462;-44
2022/03/26 02:54:40;;;;;;;23.27;14.40;;;8.40;56.80;;;;;;5061542;28;20466;-44
2022/03/26 02:57:07;;;;;;;23.27;14.33;;;8.40;56.80;;;;;;5049444;28;20464;-44
2022/03/26 02:59:34;;;;;;;23.53;15.00;;;8.30;56.60;;;;;;5034726;28;20473;-44
2022/03/26 03:02:01;;;;;;;23.47;15.30;;;8.30;56.50;;;;;;5060203;28;20458;-44
2022/03/26 03:04:28;;;;;;;23.23;14.43;;;8.30;56.80;;;;;;5062294;28;20462;-44
2022/03/26 03:06:54;;;;;;;20.40;13.07;;;8.30;56.80;;;;;;5064123;28;20526;-44
2022/03/26 03:09:21;;;;;;;21.07;13.23;;;8.20;56.90;;;;;;5060736;28;20460;-44
2022/03/26 03:11:48;;;;;;;25.93;13.60;;;8.20;57.00;;;;;;5062893;28;20456;-43
2022/03/26 03:14:15;;;;;;;25.43;15.10;;;8.10;57.20;;;;;;5058805;28;20463;-44
2022/03/26 03:16:43;;;;;;;30.97;14.90;;;8.10;57.30;;;;;;5060327;28;20492;-44
2022/03/26 03:19:10;;;;;;;25.80;14.10;;;8.00;57.60;;;;;;5060985;28;20462;-44
2022/03/26 03:21:36;;;;;;;22.27;15.37;;;8.00;58.10;;;;;;5065124;28;20484;-44
2022/03/26 03:24:03;;;;;;;24.53;13.60;;;8.00;57.90;;;;;;5062985;28;20462;-44
2022/03/26 03:26:31;;;;;;;18.00;12.97;;;7.90;58.10;;;;;;5065312;28;20462;-44
2022/03/26 03:28:59;;;;;;;27.10;13.40;;;7.90;58.30;;;;;;5058903;28;20459;-44
2022/03/26 03:31:28;;;;;;;23.50;12.47;;;7.90;58.20;;;;;;5055471;28;20470;-44
2022/03/26 03:33:55;;;;;;;17.87;12.70;;;7.80;58.10;;;;;;5055443;28;20538;-44
2022/03/26 03:36:22;;;;;;;25.07;13.70;;;7.80;58.20;;;;;;5041709;28;20536;-44
2022/03/26 03:38:49;;;;;;;29.90;15.67;;;7.70;58.30;;;;;;5054549;28;20466;-44
2022/03/26 03:41:17;;;;;;;22.40;14.43;;;7.60;58.30;;;;;;5056457;28;20469;-45
2022/03/26 03:43:43;;;;;;;27.37;15.90;;;7.60;58.70;;;;;;5057592;28;20446;-45
2022/03/26 03:46:10;;;;;;;27.53;15.03;;;7.60;58.70;;;;;;5053863;28;20483;-45
2022/03/26 03:48:37;;;;;;;21.40;13.33;;;7.50;58.80;;;;;;5055367;28;21164;-45
2022/03/26 03:51:04;;;;;;;23.80;13.23;;;7.50;59.30;;;;;;5056075;28;20462;-45
2022/03/26 03:53:31;;;;;;;25.87;14.80;;;7.40;59.20;;;;;;5056879;28;20454;-45
2022/03/26 03:55:57;;;;;;;27.33;14.37;;;7.40;59.40;;;;;;5054943;28;20480;-45
2022/03/26 03:58:24;;;;;;;24.60;14.27;;;7.30;59.70;;;;;;5055176;28;20477;-45
2022/03/26 04:00:54;;;;;;;22.70;13.43;;;7.30;60.00;;;;;;5058031;28;20465;-45
2022/03/26 04:03:22;;;;;;;22.20;13.13;;;7.20;60.10;;;;;;5057948;28;20504;-45
2022/03/26 04:05:49;;;;;;;27.67;13.23;;;7.20;60.40;;;;;;5058293;28;20478;-45
2022/03/26 04:08:16;;;;;;;23.77;14.60;;;7.20;60.40;;;;;;5056656;28;21003;-44
2022/03/26 04:10:43;;;;;;;22.30;13.50;;;7.20;60.30;;;;;;5057190;28;20470;-44
2022/03/26 04:13:09;;;;;;;21.37;12.00;;;7.10;60.40;;;;;;5056870;28;20987;-45
2022/03/26 04:15:36;;;;;;;23.40;13.90;;;7.10;60.50;;;;;;5062484;28;20842;-45
2022/03/26 04:18:03;;;;;;;24.60;15.33;;;7.10;60.40;;;;;;5050672;28;20894;-44
2022/03/26 04:20:30;;;;;;;20.43;12.27;;;7.10;60.40;;;;;;5055208;28;20913;-44
2022/03/26 04:22:57;;;;;;;24.70;14.77;;;7.00;60.60;;;;;;5056220;28;20905;-44
2022/03/26 04:25:24;;;;;;;20.20;13.37;;;7.00;60.50;;;;;;5058677;28;20826;-44
2022/03/26 04:27:51;;;;;;;22.83;14.57;;;7.00;60.50;;;;;;5055611;28;20486;-44
2022/03/26 04:30:19;;;;;;;22.00;14.27;;;6.90;60.60;;;;;;5056855;28;20454;-44
2022/03/26 04:32:46;;;;;;;21.83;12.73;;;6.90;60.70;;;;;;5059748;28;20465;-44
2022/03/26 04:35:13;;;;;;;24.80;13.70;;;6.90;60.70;;;;;;5056138;28;20454;-44
2022/03/26 04:37:41;;;;;;;19.00;12.90;;;6.90;60.80;;;;;;5057057;28;20457;-44
2022/03/26 04:40:11;;;;;;;23.20;13.33;;;6.90;61.00;;;;;;5057669;28;20465;-44
2022/03/26 04:42:41;;;;;;;28.50;13.10;;;6.90;61.00;;;;;;5055547;28;20524;-44
2022/03/26 04:45:09;;;;;;;25.33;15.53;;;6.80;61.10;;;;;;5057075;28;20454;-43
2022/03/26 04:47:36;;;;;;;24.00;12.63;;;6.80;61.30;;;;;;5057961;28;20581;-44
2022/03/26 04:50:05;;;;;;;20.60;13.33;;;6.80;61.60;;;;;;5060674;28;20542;-44
2022/03/26 04:52:33;;;;;;;29.63;15.00;;;6.80;61.70;;;;;;5043186;28;20455;-44
2022/03/26 04:55:00;;;;;;;23.97;13.53;;;6.80;61.80;;;;;;5040848;28;20489;-44
2022/03/26 04:57:27;;;;;;;23.50;13.00;;;6.70;61.80;;;;;;5060575;28;20467;-44
2022/03/26 04:59:54;;;;;;;25.57;14.20;;;6.70;62.00;;;;;;5063005;28;20466;-44
2022/03/26 05:02:20;;;;;;;22.43;13.27;;;6.70;61.90;;;;;;5060882;28;20468;-44
2022/03/26 05:04:47;;;;;;;25.17;14.67;;;6.70;62.10;;;;;;5061097;28;20476;-44
2022/03/26 05:09:59;;;;;;;26.47;14.33;;;6.70;62.10;;;;;;5064797;28;20462;-44
2022/03/26 05:12:26;;;;;;;21.57;12.80;;;6.60;62.20;;;;;;5057614;28;20841;-44
2022/03/26 05:14:53;;;;;;;17.40;11.77;;;6.60;62.70;;;;;;5058521;28;20456;-44
2022/03/26 05:17:21;;;;;;;21.27;12.30;;;6.60;62.80;;;;;;5056659;28;20463;-44
2022/03/26 05:19:47;;;;;;;23.03;13.00;;;6.60;62.90;;;;;;5059123;28;20837;-44
2022/03/26 05:22:14;;;;;;;30.77;13.67;;;6.60;63.00;;;;;;5057965;28;20469;-44
2022/03/26 05:24:41;;;;;;;24.50;13.07;;;6.60;62.90;;;;;;5059111;28;20464;-44
2022/03/26 05:27:08;;;;;;;23.37;15.43;;;6.50;63.10;;;;;;5059940;28;20489;-44
2022/03/26 05:29:35;;;;;;;23.10;12.67;;;6.50;63.20;;;;;;5059394;28;20971;-44
2022/03/26 05:32:02;;;;;;;24.40;13.80;;;6.50;63.20;;;;;;5059073;28;20549;-44
2022/03/26 05:34:29;;;;;;;23.30;13.67;;;6.50;63.00;;;;;;5057935;28;20485;-44
2022/03/26 05:36:55;;;;;;;24.23;13.43;;;6.40;63.20;;;;;;5056670;28;20459;-44
2022/03/26 05:39:22;;;;;;;21.80;12.97;;;6.40;63.40;;;;;;5058014;28;20489;-44
2022/03/26 05:41:49;;;;;;;27.30;14.37;;;6.40;63.50;;;;;;5043344;28;20451;-44
2022/03/26 05:44:15;;;;;;;22.80;12.53;;;6.50;63.50;;;;;;5059492;28;20458;-44
2022/03/26 05:46:42;;;;;;;22.63;14.83;;;6.50;63.40;;;;;;5059038;28;20478;-44
2022/03/26 05:49:09;;;;;;;29.07;16.00;;;6.50;63.60;;;;;;5057476;28;20492;-45
2022/03/26 05:51:36;;;;;;;25.87;13.60;;;6.50;63.40;;;;;;5058497;28;20521;-44
2022/03/26 05:54:03;;;;;;;23.80;14.30;;;6.60;63.90;;;;;;5059630;28;20459;-44
2022/03/26 05:56:30;;;;;;;21.57;13.43;;;6.50;63.70;;;;;;5056597;28;20462;-44
2022/03/26 05:58:56;;;;;;;23.63;14.47;;;6.50;63.70;;;;;;5060612;28;20573;-44
2022/03/26 06:01:23;;;;;;;24.97;14.63;;;6.50;64.10;;;;;;5059821;28;20454;-43
2022/03/26 06:03:50;;;;;;;29.13;16.07;;;6.50;64.10;;;;;;5059223;28;20487;-44
2022/03/26 06:06:17;;;;;;;23.80;13.83;;;6.50;64.00;;;;;;5062385;28;20471;-44
2022/03/26 06:08:44;;;;;;;24.23;13.80;;;6.60;64.40;;;;;;5056240;28;20501;-44
2022/03/26 06:11:10;;;;;;;28.93;15.90;;;6.60;64.40;;;;;;5056032;28;20472;-43
2022/03/26 06:13:38;;;;;;;29.10;17.17;;;6.60;64.40;;;;;;5057696;28;20466;-44
2022/03/26 06:16:05;;;;;;;27.83;14.90;;;6.60;64.60;;;;;;5061518;28;20469;-44
2022/03/26 06:18:35;;;;;;;27.37;14.13;;;6.60;64.40;;;;;;5061072;28;20471;-44
2022/03/26 06:21:05;;;;;;;22.17;14.53;;;6.60;64.60;;;;;;5059375;28;20460;-44
2022/03/26 06:23:32;;;;;;;19.90;13.27;;;6.60;64.80;;;;;;5042481;28;20488;-44
2022/03/26 06:26:00;;;;;;;27.90;15.17;;;6.70;65.00;;;;;;5061196;28;20456;-44
2022/03/26 06:28:27;;;;;;;30.70;15.73;;;6.70;65.30;;;;;;5059074;28;20497;-44
2022/03/26 06:30:53;;;;;;;24.90;15.17;;;6.80;65.20;;;;;;5058340;28;20458;-45
2022/03/26 06:33:22;;;;;;;28.53;16.23;;;6.80;65.20;;;;;;5060893;28;20444;-45
2022/03/26 06:35:49;;;;;;;31.37;17.80;;;6.80;65.40;;;;;;5057819;28;20466;-44
2022/03/26 06:38:18;;;;;;;28.00;14.63;;;6.90;65.60;;;;;;5060533;28;20977;-44
2022/03/26 06:40:45;;;;;;;30.63;15.60;;;6.90;65.60;;;;;;5040043;28;20475;-44
2022/03/26 06:43:12;;;;;;;26.97;15.07;;;7.00;65.80;;;;;;5045694;28;20840;-44
2022/03/26 06:45:40;;;;;;;27.60;14.67;;;7.10;65.80;;;;;;5043803;28;20464;-44
2022/03/26 06:48:08;;;;;;;25.00;15.60;;;7.10;65.80;;;;;;5053365;28;21739;-44
2022/03/26 06:50:34;;;;;;;28.93;16.40;;;7.20;65.90;;;;;;5061847;28;20465;-44
2022/03/26 06:53:01;;;;;;;23.10;14.97;;;7.30;65.80;;;;;;5056613;28;20469;-44
2022/03/26 06:55:28;;;;;;;30.17;16.77;;;7.40;65.60;;;;;;5056590;28;20459;-44
2022/03/26 06:57:54;;;;;;;27.40;16.70;;;7.40;65.60;;;;;;5059152;28;20469;-44
2022/03/26 07:00:21;;;;;;;31.03;15.93;;;7.50;65.50;;;;;;5058579;28;20462;-45
2022/03/26 07:02:48;;;;;;;25.73;16.20;;;7.60;65.40;;;;;;5059463;28;20473;-45
2022/03/26 07:05:15;;;;;;;35.47;17.43;;;7.70;65.30;;;;;;5058517;28;20458;-44
2022/03/26 07:07:42;;;;;;;26.30;15.70;;;7.80;65.40;;;;;;5045767;28;20495;-45
2022/03/26 07:10:09;;;;;;;26.70;16.67;;;7.90;65.20;;;;;;5058046;28;20475;-44
2022/03/26 07:12:36;;;;;;;30.97;19.20;;;8.00;64.90;;;;;;5057804;28;20832;-44
2022/03/26 07:15:05;;;;;;;28.57;18.03;;;8.10;64.90;;;;;;5058770;28;20457;-44
2022/03/26 07:17:31;;;;;;;31.47;17.03;;;8.20;64.60;;;;;;5043877;28;20809;-44
2022/03/26 07:19:58;;;;;;;31.50;18.83;;;8.40;63.70;;;;;;5060360;28;21001;-44
2022/03/26 07:22:30;;;;;;;27.30;17.50;;;8.50;63.60;;;;;;5058602;28;20466;-45
2022/03/26 07:24:57;;;;;;;28.33;17.23;;;8.70;62.90;;;;;;5059258;28;20866;-44
2022/03/26 07:27:23;;;;;;;27.03;15.80;;;8.90;62.40;;;;;;5058357;28;20440;-44
2022/03/26 07:29:50;;;;;;;33.77;19.90;;;9.00;61.10;;;;;;5060135;28;20478;-45
2022/03/26 07:32:17;;;;;;;29.27;17.43;;;9.20;61.00;;;;;;5030418;28;20466;-44
2022/03/26 07:34:44;;;;;;;27.60;17.00;;;9.40;61.40;;;;;;5055455;28;20462;-44
2022/03/26 07:37:11;;;;;;;32.23;17.50;;;9.70;61.00;;;;;;5055797;28;20464;-44
2022/03/26 07:39:37;;;;;;;31.53;18.00;;;9.90;59.40;;;;;;5058472;28;20466;-45
2022/03/26 07:42:04;;;;;;;39.93;19.60;;;10.00;58.90;;;;;;5059338;28;20846;-45
2022/03/26 07:44:31;;;;;;;24.80;17.40;;;10.30;58.80;;;;;;5058992;28;20452;-44
2022/03/26 07:46:58;;;;;;;32.57;17.90;;;10.50;57.50;;;;;;5059874;28;20478;-44
2022/03/26 07:49:25;;;;;;;26.20;15.87;;;10.70;57.90;;;;;;5048459;28;20851;-45
2022/03/26 07:51:51;;;;;;;33.87;18.97;;;10.90;58.20;;;;;;5056096;28;20462;-44
2022/03/26 07:54:18;;;;;;;31.70;18.10;;;11.10;56.60;;;;;;5056003;28;20467;-45
2022/03/26 07:56:46;;;;;;;35.60;19.30;;;11.40;57.20;;;;;;5061434;28;20458;-44
2022/03/26 07:59:13;;;;;;;31.13;17.20;;;11.60;56.70;;;;;;5060752;28;20454;-44
2022/03/26 08:01:39;;;;;;;30.70;18.50;;;11.80;55.90;;;;;;5056135;28;20463;-44
2022/03/26 08:04:06;;;;;;;31.80;20.63;;;12.00;54.80;;;;;;5055699;28;20921;-44
2022/03/26 08:06:33;;;;;;;30.50;18.53;;;12.20;54.40;;;;;;5059994;28;20465;-44
2022/03/26 08:09:00;;;;;;;28.80;18.47;;;12.50;54.20;;;;;;5056344;28;21105;-44
2022/03/26 08:11:27;;;;;;;29.47;18.73;;;12.70;53.30;;;;;;5053288;28;20471;-45
2022/03/26 08:13:54;;;;;;;29.80;19.60;;;12.90;53.40;;;;;;5057120;28;20977;-43
2022/03/26 08:16:21;;;;;;;31.80;18.03;;;13.10;51.80;;;;;;5041994;28;20459;-44
2022/03/26 08:18:48;;;;;;;27.27;17.93;;;13.40;52.00;;;;;;5059144;28;20467;-44
2022/03/26 08:21:15;;;;;;;32.60;18.30;;;13.60;52.10;;;;;;5059572;28;20471;-44
2022/03/26 08:23:42;;;;;;;26.83;18.60;;;13.80;51.30;;;;;;5064381;28;20538;-43
2022/03/26 08:26:26;;;;;;;28.60;18.30;;;14.00;48.70;;;;;;5065932;28;20462;-43
2022/03/26 08:28:55;;;;;;;30.13;18.87;;;14.30;49.20;;;;;;5061680;28;20497;-43
2022/03/26 08:31:23;;;;;;;30.20;19.13;;;14.50;48.50;;;;;;5061569;28;20443;-43
2022/03/26 08:33:51;;;;;;;30.40;19.10;;;14.70;48.20;;;;;;5061731;28;20455;-43
2022/03/26 08:36:18;;;;;;;36.77;19.80;;;14.90;47.70;;;;;;5059088;28;20924;-43
2022/03/26 08:38:46;;;;;;;33.50;19.30;;;15.10;47.10;;;;;;5053939;28;20460;-44
2022/03/26 08:41:14;;;;;;;29.73;18.90;;;15.30;46.80;;;;;;5042158;28;20753;-43
2022/03/26 08:43:42;;;;;;;25.10;18.50;;;15.50;47.20;;;;;;5023201;28;20487;-43
2022/03/26 08:46:09;;;;;;;33.10;20.57;;;15.70;47.50;;;;;;5061080;28;20488;-43
2022/03/26 08:48:36;;;;;;;31.70;19.57;;;15.90;46.70;;;;;;5057304;28;20518;-43
2022/03/26 08:51:03;;;;;;;30.27;19.50;;;16.10;46.60;;;;;;5057935;28;22042;-43
2022/03/26 08:53:30;;;;;;;34.80;19.93;;;16.20;45.60;;;;;;5058802;28;20468;-44
2022/03/26 08:55:57;;;;;;;37.20;20.10;;;16.40;45.80;;;;;;5059494;28;20459;-44
2022/03/26 08:58:24;;;;;;;28.70;19.57;;;16.60;45.60;;;;;;5056071;28;20460;-45
2022/03/26 09:00:52;;;;;;;32.07;20.27;;;16.70;45.50;;;;;;5060020;28;20551;-45
2022/03/26 09:03:21;;;;;;;28.90;19.77;;;16.90;44.10;;;;;;5060893;28;20960;-44
2022/03/26 09:05:55;;;;;;;29.87;19.73;;;17.00;43.70;;;;;;5057157;28;21301;-44
2022/03/26 09:08:22;;;;;;;35.63;21.90;;;17.20;43.70;;;;;;5063797;28;20984;-44
2022/03/26 09:10:48;;;;;;;34.10;21.10;;;17.40;43.60;;;;;;5058847;28;20506;-45
2022/03/26 09:13:15;;;;;;;32.97;21.00;;;17.60;43.10;;;;;;5061073;28;20463;-44
2022/03/26 09:15:42;;;;;;;30.00;20.27;;;17.70;41.80;;;;;;5059412;28;20455;-44
2022/03/26 09:18:09;;;;;;;38.77;20.87;;;17.80;41.90;;;;;;5058529;28;20544;-44
2022/03/26 09:20:36;;;;;;;34.27;18.77;;;18.00;41.50;;;;;;5057119;28;20460;-44
2022/03/26 09:23:03;;;;;;;31.73;21.00;;;18.20;42.30;;;;;;5059452;28;21343;-44
2022/03/26 09:25:30;;;;;;;30.17;20.20;;;18.30;41.40;;;;;;5054916;28;20549;-44
2022/03/26 09:27:56;;;;;;;29.30;19.70;;;18.40;41.90;;;;;;5061177;28;20463;-44
2022/03/26 09:30:23;;;;;;;32.07;22.57;;;18.50;41.90;;;;;;5056838;28;20458;-44
2022/03/26 09:32:50;;;;;;;31.73;21.20;;;18.60;41.00;;;;;;5060732;28;20473;-45
2022/03/26 09:35:18;;;;;;;38.20;21.77;;;18.70;40.90;;;;;;5060497;28;20456;-44
2022/03/26 09:37:44;;;;;;;41.30;21.93;;;18.70;39.90;;;;;;5061746;28;20455;-44
2022/03/26 09:40:11;;;;;;;38.20;21.30;;;18.70;40.30;;;;;;5058422;28;20467;-43
2022/03/26 09:42:39;;;;;;;36.93;22.57;;;18.70;39.90;;;;;;5058079;28;20478;-43
2022/03/26 09:45:08;;;;;;;32.83;21.40;;;18.90;40.90;;;;;;5060426;28;20551;-43
2022/03/26 09:47:36;;;;;;;30.23;20.50;;;19.00;40.60;;;;;;5057259;28;20525;-43
2022/03/26 09:50:06;;;;;;;29.53;20.23;;;19.10;40.50;;;;;;5044397;28;20514;-43
2022/03/26 09:52:34;;;;;;;30.37;20.77;;;19.30;40.40;;;;;;5057839;28;21029;-43
2022/03/26 09:55:11;;;;;;;29.80;20.73;;;19.60;41.10;;;;;;5061326;28;20873;-44
2022/03/26 09:57:39;;;;;;;35.03;21.50;;;19.80;39.90;;;;;;5062875;28;20462;-43
2022/03/26 10:00:07;;;;;;;33.77;21.27;;;19.90;39.60;;;;;;5049591;28;20748;-43
2022/03/26 10:02:34;;;;;;;37.50;22.57;;;20.00;38.10;;;;;;5063741;28;20469;-46
2022/03/26 10:05:02;;;;;;;31.30;21.50;;;20.10;38.20;;;;;;5059462;28;20561;-45
2022/03/26 10:07:30;;;;;;;49.47;22.60;;;20.20;37.90;;;;;;5037339;28;21049;-45
2022/03/26 10:09:57;;;;;;;41.93;23.53;;;20.40;40.80;;;;;;5057001;28;20687;-46
2022/03/26 10:12:26;;;;;;;28.57;21.00;;;20.60;40.10;;;;;;5056002;28;20468;-47
2022/03/26 10:14:59;;;;;;;31.03;18.60;;;20.70;37.60;;;;;;5039520;28;20461;-46
2022/03/26 10:17:29;;;;;;;34.70;19.80;;;20.90;37.20;;;;;;5055443;28;20456;-46
2022/03/26 10:20:03;;;;;;;30.63;20.53;;;21.20;36.40;;;;;;5055030;28;20466;-47
2022/03/26 10:22:43;;;;;;;31.53;19.70;;;21.40;35.60;;;;;;5057878;28;20470;-47
2022/03/26 10:25:22;;;;;;;31.60;21.60;;;21.70;36.90;;;;;;5061842;28;20466;-47
2022/03/26 10:27:51;;;;;;;28.80;19.37;;;22.00;36.00;;;;;;5057535;28;20460;-47
2022/03/26 10:33:21;;;;;;;27.07;18.27;;;22.60;34.00;;;;;;5059312;28;20464;-47
2022/03/26 10:35:56;;;;;;;29.17;19.37;;;22.80;32.40;;;;;;5059999;28;20476;-48
2022/03/26 10:38:42;;;;;;;28.60;18.33;;;23.00;31.40;;;;;;5058321;28;21004;-47
2022/03/26 10:41:10;;;;;;;29.23;19.87;;;23.10;31.20;;;;;;5048650;28;20686;-47
2022/03/26 10:43:41;;;;;;;26.57;18.40;;;23.50;31.50;;;;;;5054004;28;20461;-47
2022/03/26 10:46:08;;;;;;;23.37;17.80;;;23.70;31.50;;;;;;5057384;28;20469;-47
2022/03/26 10:48:37;;;;;;;25.83;16.90;;;23.80;30.90;;;;;;5055316;28;20991;-47
2022/03/26 10:51:08;;;;;;;26.87;17.47;;;23.90;29.80;;;;;;5058135;28;20489;-48
2022/03/26 10:53:40;;;;;;;25.20;16.47;;;23.90;30.00;;;;;;5056770;28;20925;-47
2022/03/26 10:56:11;;;;;;;26.53;16.90;;;23.90;30.10;;;;;;5059584;28;20537;-48
2022/03/26 10:58:39;;;;;;;21.27;16.63;;;24.00;30.20;;;;;;5057412;28;20481;-48
2022/03/26 11:01:06;;;;;;;24.10;17.03;;;24.10;30.70;;;;;;5056026;28;20462;-48
2022/03/26 11:03:35;;;;;;;27.20;17.80;;;24.20;31.00;;;;;;5056781;28;20526;-47
2022/03/26 11:06:06;;;;;;;26.67;16.87;;;24.30;31.00;;;;;;5057636;28;20509;-47
2022/03/26 11:08:34;;;;;;;24.47;15.90;;;24.50;30.30;;;;;;5036600;28;20454;-46
2022/03/26 11:11:06;;;;;;;23.80;17.50;;;24.60;30.60;;;;;;5057071;28;20836;-46
2022/03/26 11:13:36;;;;;;;22.17;15.63;;;24.80;29.10;;;;;;5055619;28;20547;-47
2022/03/26 11:16:09;;;;;;;24.10;14.40;;;24.80;28.50;;;;;;5060688;28;20732;-46
2022/03/26 11:18:41;;;;;;;25.37;17.60;;;24.80;28.60;;;;;;5038950;28;20464;-47
2022/03/26 11:21:52;;;;;;;26.97;16.87;;;24.70;28.80;;;;;;5057984;28;20994;-47
2022/03/26 11:24:29;;;;;;;22.80;15.97;;;24.60;28.70;;;;;;4999638;28;20503;-47
2022/03/26 11:27:13;;;;;;;18.13;12.80;;;24.60;28.80;;;;;;5055750;28;20453;-47
2022/03/26 11:29:44;;;;;;;23.83;14.77;;;24.50;28.20;;;;;;5055545;28;20543;-47
2022/03/26 11:32:17;;;;;;;16.50;13.60;;;24.40;28.20;;;;;;5054267;28;20453;-47
2022/03/26 11:34:46;;;;;;;20.07;14.17;;;24.30;28.50;;;;;;5039356;28;20461;-48
2022/03/26 11:37:20;;;;;;;27.53;16.00;;;24.20;28.00;;;;;;5053024;28;20545;-48
2022/03/26 11:39:51;;;;;;;27.47;18.33;;;24.10;28.90;;;;;;5057353;28;20901;-48
2022/03/26 11:42:34;;;;;;;24.00;14.00;;;24.10;29.30;;;;;;5055469;28;20463;-48
2022/03/26 11:51:16;;;;;;;18.90;14.23;;;23.70;29.70;;;;;;5058153;28;20900;-48
2022/03/26 11:53:47;;;;;;;20.13;13.70;;;23.60;30.80;;;;;;5054833;28;20461;-48
2022/03/26 11:56:29;;;;;;;18.23;14.00;;;23.50;31.20;;;;;;5038539;28;20460;-47
2022/03/26 11:59:27;;;;;;;23.00;15.23;;;23.40;32.20;;;;;;5042750;28;20517;-46
2022/03/26 12:01:54;;;;;;;21.27;13.70;;;23.20;32.30;;;;;;5048348;28;21013;-47
2022/03/26 12:04:26;;;;;;;16.60;12.60;;;23.10;32.70;;;;;;5060276;28;20458;-47
2022/03/26 12:06:58;;;;;;;30.43;13.53;;;23.00;31.50;;;;;;5057634;28;20458;-47
2022/03/26 12:09:33;;;;;;;22.93;14.60;;;22.90;31.90;;;;;;5058825;28;20500;-46
2022/03/26 12:12:12;;;;;;;20.60;13.67;;;22.80;32.90;;;;;;5045935;28;20453;-46
2022/03/26 12:15:01;;;;;;;26.53;15.00;;;22.70;32.60;;;;;;5060948;28;20661;-47
2022/03/26 12:17:48;;;;;;;28.73;15.93;;;22.50;32.10;;;;;;5041568;28;20549;-47
2022/03/26 12:20:22;;;;;;;19.97;14.77;;;22.40;33.00;;;;;;5061431;28;20471;-47
2022/03/26 12:22:51;;;;;;;26.43;16.10;;;22.40;34.10;;;;;;5057077;28;20472;-47
2022/03/26 12:25:51;;;;;;;24.80;16.50;;;22.40;35.20;;;;;;5062421;28;20708;-47
2022/03/26 12:28:24;;;;;;;24.57;16.10;;;22.30;34.60;;;;;;5056995;28;20506;-47
2022/03/26 12:30:53;;;;;;;22.93;14.10;;;22.20;34.90;;;;;;5060252;28;20523;-47
2022/03/26 12:33:23;;;;;;;24.20;15.33;;;22.20;35.40;;;;;;5060371;28;20961;-47
2022/03/26 12:35:53;;;;;;;21.60;14.20;;;22.20;35.90;;;;;;5059850;28;20456;-47
2022/03/26 12:38:22;;;;;;;19.50;14.10;;;22.10;35.00;;;;;;5057901;28;20500;-47
2022/03/26 12:40:51;;;;;;;25.30;16.40;;;22.10;34.50;;;;;;5046704;28;20462;-46
2022/03/26 12:43:19;;;;;;;21.27;14.43;;;22.00;35.00;;;;;;5061645;28;20467;-46
2022/03/26 12:45:45;;;;;;;25.00;14.00;;;22.00;34.80;;;;;;5059636;28;20556;-47
2022/03/26 12:48:14;;;;;;;21.90;14.67;;;22.00;35.40;;;;;;5059331;28;20885;-46
2022/03/26 12:50:44;;;;;;;25.33;16.03;;;22.00;34.80;;;;;;5058661;28;20493;-47